»·PEaware :: N7355A KSNA-KBUR

N7355A :: KSNA-KBUR

FLIGHT INFORMATION

Flight Status: Arrived
Operator: Privately registered:
United States
More flights under this callsign
Pilot: Monte T. (31546)
Aircraft: CESSNA 172 SKYHAWK
(C172)
More flights by this aircraft type
Origin: KSNA John Wayne-Orange Co
United States
Destination: KBUR Bob Hope-Burbank
United States
More flights between these airports :: More routes between these airports
Route: SLI V23 POPPR SMO125 SMO SMO311 SILEX
File this flight plan on PilotEdge
Remarks: TEC route CSTP1
Altitude:
(Current/Filed)
4,000ft
Speed:
(Current/Filed)
120kts
Departed: 10-Jan-21 09:42 AM
Arrived: 10-Jan-21 10:16 AM
Distance/Time
Traveled:
40nm/0:33
Distance/Time
To Go:
Arrived

Flight Plot

Page will automatically refresh every two minutes.


Map Options




Map Legend


Flown Route
Filed Route
Departure Airport
Arrival Airport
Navaid (VOR, NDB)
Fix

Horizontal Profiles

Position Reports

Time Latitude Longitude Heading Altitude Ground
Speed
10-Jan-21 09:27 33.676080 -117.870909 219 60ft 0kts
10-Jan-21 09:28 33.676080 -117.870909 219 60ft 0kts
10-Jan-21 09:29 33.676080 -117.870909 219 60ft 0kts
10-Jan-21 09:30 33.676080 -117.870909 219 60ft 0kts
10-Jan-21 09:31 33.676080 -117.870909 219 60ft 0kts
10-Jan-21 09:32 33.676080 -117.870909 219 60ft 0kts
10-Jan-21 09:33 33.676080 -117.870909 219 60ft 0kts
10-Jan-21 09:34 33.676080 -117.870909 219 60ft 0kts
10-Jan-21 09:35 33.676080 -117.870909 219 60ft 0kts
10-Jan-21 09:36 33.676080 -117.870909 219 60ft 0kts
10-Jan-21 09:37 33.676079 -117.870910 219 60ft 0kts
10-Jan-21 09:38 33.679649 -117.867925 23 60ft 28kts
10-Jan-21 09:39 33.681165 -117.866388 112 60ft 0kts
10-Jan-21 09:40 33.680163 -117.866018 206 60ft 18kts
10-Jan-21 09:41 33.663260 -117.880945 230 660ft 99kts
10-Jan-21 09:42 33.645255 -117.908129 231 1467ft 106kts
10-Jan-21 09:43 33.627148 -117.935553 231 2260ft 105kts
10-Jan-21 09:44 33.617957 -117.966026 289 3054ft 104kts
10-Jan-21 09:45 33.628229 -117.998088 290 3855ft 101kts
10-Jan-21 09:46 33.639919 -118.034274 291 4000ft 127kts
10-Jan-21 09:47 33.652829 -118.074134 291 3999ft 128kts
10-Jan-21 09:48 33.665792 -118.114141 291 3999ft 128kts
10-Jan-21 09:49 33.678750 -118.154110 291 3999ft 128kts
10-Jan-21 09:50 33.700433 -118.187025 323 3999ft 128kts
10-Jan-21 09:51 33.729260 -118.212327 325 3999ft 128kts
10-Jan-21 09:52 33.758906 -118.236374 327 3999ft 128kts
10-Jan-21 09:53 33.790486 -118.256358 337 3999ft 128kts
10-Jan-21 09:54 33.823246 -118.273233 326 3999ft 128kts
10-Jan-21 09:55 33.852974 -118.297364 323 3999ft 128kts
10-Jan-21 09:56 33.880142 -118.325183 317 3999ft 128kts
10-Jan-21 09:57 33.906677 -118.354082 317 3999ft 128kts
10-Jan-21 09:58 33.933216 -118.382977 318 3999ft 128kts
10-Jan-21 09:59 33.960476 -118.410720 319 3999ft 128kts
10-Jan-21 10:00 33.987851 -118.438487 319 3999ft 128kts
10-Jan-21 10:01 34.013958 -118.467936 312 4000ft 128kts
10-Jan-21 10:02 34.037879 -118.500069 311 3999ft 128kts
10-Jan-21 10:03 34.061874 -118.532293 312 3999ft 128kts
10-Jan-21 10:04 34.085753 -118.564358 312 3999ft 128kts
10-Jan-21 10:05 34.109713 -118.596520 312 3999ft 128kts
10-Jan-21 10:06 34.133657 -118.628665 312 3999ft 128kts
10-Jan-21 10:07 34.161099 -118.651409 20 3993ft 128kts
10-Jan-21 10:08 34.185367 -118.619682 61 3603ft 139kts
10-Jan-21 10:09 34.201431 -118.583254 64 3005ft 120kts
10-Jan-21 10:10 34.200264 -118.541273 92 2995ft 119kts
10-Jan-21 10:11 34.199577 -118.505229 90 2951ft 111kts
10-Jan-21 10:12 34.199088 -118.465063 90 2363ft 120kts
10-Jan-21 10:13 34.198588 -118.424856 90 1683ft 116kts
10-Jan-21 10:14 34.198211 -118.390620 91 1176ft 84kts
10-Jan-21 10:15 34.197868 -118.365249 90 722ft 39kts
10-Jan-21 10:16 34.198606 -118.360242 0 717ft 0kts
10-Jan-21 10:17 34.199638 -118.359689 82 720ft 0kts

Navigation Log

Ident Type
Flight plan parsing failed, navigation log unavailable